Time;durP1;ratioP1;P1;durP2;ratioP2;P2;SDS_P1;SDS_P2;PMS_P1;PMS_P2;Temp;Humidity;BMP_temperature;BMP_pressure;BME280_temperature;BME280_humidity;BME280_pressure;Samples;Min_cycle;Max_cycle;Signal;HPM_P1;HPM_P2
2022/02/07 00:01:52;;;;;;;2.43;2.23;;;6.60;99.90;;;;;;4989518;28;20463;-83
2022/02/07 00:04:40;;;;;;;6.60;2.23;;;6.70;99.90;;;;;;4969153;28;20841;-82
2022/02/07 00:07:09;;;;;;;6.70;2.93;;;6.70;99.90;;;;;;4963645;28;20574;-79
2022/02/07 00:09:36;;;;;;;6.70;1.97;;;6.70;99.90;;;;;;4962258;28;20956;-80
2022/02/07 00:12:03;;;;;;;3.33;1.40;;;6.60;99.90;;;;;;4954610;28;20478;-83
2022/02/07 00:14:30;;;;;;;5.93;2.00;;;6.50;99.90;;;;;;4963199;28;20468;-83
2022/02/07 00:16:56;;;;;;;3.40;1.30;;;6.50;99.90;;;;;;4975731;28;20471;-83
2022/02/07 00:19:26;;;;;;;3.90;1.17;;;6.40;99.90;;;;;;4979119;28;20923;-82
2022/02/07 00:21:53;;;;;;;2.77;1.10;;;6.40;99.90;;;;;;4974316;28;20493;-82
2022/02/07 00:24:20;;;;;;;3.23;1.10;;;6.40;99.90;;;;;;4973892;28;20459;-82
2022/02/07 00:26:47;;;;;;;2.10;0.80;;;6.30;99.90;;;;;;4976667;28;20460;-83
2022/02/07 00:29:15;;;;;;;1.50;0.87;;;6.20;99.90;;;;;;4978571;28;20462;-83
2022/02/07 00:31:42;;;;;;;4.40;1.37;;;6.20;99.90;;;;;;4977530;28;20834;-84
2022/02/07 00:34:09;;;;;;;6.13;1.73;;;6.10;99.90;;;;;;4981851;28;20460;-82
2022/02/07 00:36:36;;;;;;;2.27;1.10;;;6.10;99.90;;;;;;4980865;28;20482;-83
2022/02/07 00:39:09;;;;;;;2.57;1.03;;;6.10;99.90;;;;;;4974707;28;20468;-82
2022/02/07 00:41:51;;;;;;;3.63;1.23;;;6.10;99.90;;;;;;4976266;28;20534;-83
2022/02/07 00:44:20;;;;;;;2.60;0.93;;;6.10;99.90;;;;;;4977297;28;20455;-81
2022/02/07 00:46:50;;;;;;;2.60;1.10;;;6.20;99.90;;;;;;4981351;28;20527;-82
2022/02/07 00:49:17;;;;;;;3.00;1.60;;;6.20;99.90;;;;;;4976599;28;20456;-82
2022/02/07 00:51:44;;;;;;;2.60;0.90;;;6.20;99.90;;;;;;4976232;28;20490;-82
2022/02/07 00:54:11;;;;;;;4.33;1.90;;;6.10;99.90;;;;;;4979107;28;20460;-83
2022/02/07 00:56:37;;;;;;;4.80;1.13;;;6.00;99.90;;;;;;4976872;28;20463;-82
2022/02/07 00:59:04;;;;;;;2.47;0.80;;;5.80;99.90;;;;;;4979058;28;20470;-79
2022/02/07 01:01:32;;;;;;;1.67;0.90;;;5.80;99.90;;;;;;4973952;28;20464;-82
2022/02/07 01:03:58;;;;;;;2.10;1.00;;;5.80;99.90;;;;;;4974754;28;20495;-81
2022/02/07 01:06:25;;;;;;;2.60;0.77;;;5.80;99.90;;;;;;4951911;28;20515;-82
2022/02/07 01:09:05;;;;;;;1.27;0.93;;;5.70;99.90;;;;;;4953003;28;20530;-79
2022/02/07 01:11:49;;;;;;;2.67;1.10;;;5.80;99.90;;;;;;4932854;28;20457;-80
2022/02/07 01:20:01;;;;;;;1.97;1.10;;;5.80;99.90;;;;;;4996177;28;20458;-82
2022/02/07 01:52:24;;;;;;;7.40;1.77;;;5.70;99.90;;;;;;4972841;28;20557;-83
2022/02/07 01:55:57;;;;;;;11.30;2.90;;;5.80;99.90;;;;;;4974272;28;20523;-82
2022/02/07 01:57:48;;;;;;;5.63;1.93;;;5.80;99.90;;;;;;4963069;28;20504;-83
2022/02/07 02:00:17;;;;;;;8.70;2.40;;;5.80;99.90;;;;;;4985119;28;20455;-82
2022/02/07 02:02:45;;;;;;;6.40;2.73;;;5.80;99.90;;;;;;4973918;28;20504;-81
2022/02/07 02:05:12;;;;;;;4.67;2.30;;;5.80;99.90;;;;;;4961952;28;20929;-81
2022/02/07 02:07:40;;;;;;;3.77;1.60;;;5.80;99.90;;;;;;4951534;28;20479;-83
2022/02/07 02:10:09;;;;;;;5.97;1.83;;;5.80;99.90;;;;;;4952198;28;20470;-82
2022/02/07 02:12:47;;;;;;;6.10;1.87;;;5.80;99.90;;;;;;4950687;28;20518;-83
2022/02/07 02:36:25;;;;;;;4.33;1.67;;;5.90;99.90;;;;;;4977690;28;20499;-81
2022/02/07 02:46:58;;;;;;;2.80;1.30;;;5.90;99.90;;;;;;4968878;28;21167;-81
2022/02/07 02:49:31;;;;;;;6.43;2.43;;;5.90;99.90;;;;;;4967541;28;20468;-80
2022/02/07 02:51:58;;;;;;;8.10;2.03;;;5.80;99.90;;;;;;4953307;28;20580;-80
2022/02/07 02:54:25;;;;;;;5.90;1.20;;;5.80;99.90;;;;;;4953248;28;20471;-81
2022/02/07 02:56:51;;;;;;;3.17;1.60;;;5.70;99.90;;;;;;4961282;28;20474;-81
2022/02/07 02:59:18;;;;;;;10.63;2.30;;;5.70;99.90;;;;;;4979364;28;20843;-81
2022/02/07 03:01:45;;;;;;;2.43;1.23;;;5.60;99.90;;;;;;4978858;28;20456;-82
2022/02/07 03:04:11;;;;;;;5.90;1.60;;;5.60;99.90;;;;;;4977589;28;20987;-81
2022/02/07 03:06:38;;;;;;;7.70;1.50;;;5.60;99.90;;;;;;4976805;28;20463;-79
2022/02/07 03:09:13;;;;;;;7.13;1.70;;;5.50;99.90;;;;;;4976198;28;20463;-80
2022/02/07 03:11:40;;;;;;;3.67;1.40;;;5.60;99.90;;;;;;4981194;28;20477;-83
2022/02/07 03:14:07;;;;;;;5.83;1.37;;;5.50;99.90;;;;;;4977241;28;20474;-83
2022/02/07 03:16:40;;;;;;;5.20;1.60;;;5.50;99.90;;;;;;4964620;28;20479;-81
2022/02/07 03:19:15;;;;;;;4.97;1.53;;;5.50;99.90;;;;;;4959137;28;20456;-82
2022/02/07 03:21:43;;;;;;;2.20;0.87;;;5.40;99.90;;;;;;4959642;28;21447;-83
2022/02/07 03:24:09;;;;;;;2.00;1.10;;;5.40;99.90;;;;;;4962557;28;20493;-83
2022/02/07 03:26:44;;;;;;;3.67;1.20;;;5.40;99.90;;;;;;4967061;28;20472;-83
2022/02/07 03:29:12;;;;;;;4.30;1.03;;;5.40;99.90;;;;;;4977830;28;21128;-81
2022/02/07 03:31:39;;;;;;;4.60;1.00;;;5.40;99.90;;;;;;4977441;28;20474;-82
2022/02/07 03:34:06;;;;;;;5.80;1.07;;;5.40;99.90;;;;;;4982269;28;20874;-80
2022/02/07 03:36:36;;;;;;;7.07;1.33;;;5.30;99.90;;;;;;4990200;28;20530;-81
2022/02/07 03:41:37;;;;;;;2.70;1.00;;;5.30;99.90;;;;;;4977880;28;20495;-85
2022/02/07 03:44:22;;;;;;;5.50;1.17;;;5.40;99.90;;;;;;4977192;28;20472;-83
2022/02/07 03:47:47;;;;;;;6.30;1.37;;;5.40;99.90;;;;;;4978603;28;20463;-84
2022/02/07 03:50:41;;;;;;;4.30;1.43;;;5.30;99.90;;;;;;4972796;28;20481;-83
2022/02/07 03:56:49;;;;;;;2.47;1.10;;;5.30;99.90;;;;;;4970173;28;20471;-85
2022/02/07 03:59:39;;;;;;;4.53;1.23;;;5.40;99.90;;;;;;4968438;28;20854;-85
2022/02/07 04:02:44;;;;;;;4.30;1.03;;;5.40;99.90;;;;;;4964253;28;20452;-82
2022/02/07 04:06:59;;;;;;;4.30;1.97;;;5.40;99.90;;;;;;4909058;29;20462;-83
2022/02/07 04:09:39;;;;;;;3.03;1.40;;;5.40;99.90;;;;;;4920571;29;20490;-82
2022/02/07 04:15:25;;;;;;;4.07;1.23;;;5.40;99.90;;;;;;4909692;29;20569;-83
2022/02/07 04:18:16;;;;;;;2.23;1.00;;;5.40;99.90;;;;;;4928313;29;20473;-87
2022/02/07 04:25:37;;;;;;;7.73;1.30;;;5.40;99.90;;;;;;4901378;29;20503;-85
2022/02/07 04:28:44;;;;;;;10.93;2.00;;;5.40;99.90;;;;;;4907155;29;20537;-83
2022/02/07 04:31:36;;;;;;;7.40;2.07;;;5.40;99.90;;;;;;4913262;29;20471;-84
2022/02/07 04:34:34;;;;;;;;;;;;;;;;;;;;;
2022/02/07 04:41:52;;;;;;;5.13;2.27;;;5.40;99.90;;;;;;4999773;23;20502;-85
2022/02/07 04:57:03;;;;;;;2.10;1.27;;;5.50;99.90;;;;;;4955985;28;20472;-86
2022/02/07 04:58:36;;;;;;;9.23;1.97;;;5.40;99.90;;;;;;4923923;28;20480;-87
2022/02/07 05:01:46;;;;;;;3.03;1.30;;;5.40;99.90;;;;;;4894060;29;20455;-85
2022/02/07 05:04:34;;;;;;;7.60;1.70;;;5.30;99.90;;;;;;4938610;28;20489;-85
2022/02/07 05:14:47;;;;;;;7.23;1.30;;;5.40;99.90;;;;;;4946663;28;20497;-87
2022/02/07 05:17:50;;;;;;;3.83;1.53;;;5.40;99.90;;;;;;4938213;29;20467;-84
2022/02/07 05:21:23;;;;;;;4.20;1.43;;;5.40;99.90;;;;;;4930322;28;20979;-84
2022/02/07 05:24:22;;;;;;;8.67;1.23;;;5.40;99.90;;;;;;4952908;28;20483;-86
2022/02/07 05:34:58;;;;;;;9.47;2.17;;;5.40;99.90;;;;;;4931697;29;20494;-86
2022/02/07 05:38:37;;;;;;;5.83;1.37;;;5.50;99.90;;;;;;4876043;29;20907;-86
2022/02/07 05:42:39;;;;;;;7.20;1.90;;;5.50;99.90;;;;;;4830155;29;20458;-85
2022/02/07 05:45:26;;;;;;;9.37;1.53;;;5.50;99.90;;;;;;4819761;29;20488;-87
2022/02/07 05:58:13;;;;;;;6.90;1.93;;;5.60;99.90;;;;;;4917017;29;20470;-85
2022/02/07 06:01:22;;;;;;;3.03;1.30;;;5.60;99.90;;;;;;5040096;23;20510;-85
2022/02/07 06:04:43;;;;;;;6.07;2.87;;;5.60;99.90;;;;;;4977785;28;20907;-85
2022/02/07 06:07:41;;;;;;;5.93;1.87;;;5.60;99.90;;;;;;4981044;28;20493;-84
2022/02/07 06:10:32;;;;;;;5.30;1.90;;;5.70;99.90;;;;;;4956720;28;21023;-84
2022/02/07 06:13:37;;;;;;;6.80;1.90;;;5.70;99.90;;;;;;4983895;28;20832;-86
2022/02/07 06:17:10;;;;;;;8.87;2.70;;;5.70;99.90;;;;;;4966198;28;20589;-84
2022/02/07 06:20:14;;;;;;;10.10;2.60;;;5.70;99.90;;;;;;4956904;23;20609;-86
2022/02/07 06:23:28;;;;;;;10.63;2.10;;;5.70;99.90;;;;;;4977417;28;20486;-85
2022/02/07 06:26:02;;;;;;;2.70;1.93;;;5.70;99.90;;;;;;5000605;28;20534;-85
2022/02/07 06:32:18;;;;;;;5.53;1.83;;;5.70;99.90;;;;;;5010507;28;20530;-86
2022/02/07 06:35:17;;;;;;;6.47;2.27;;;5.70;99.90;;;;;;4953864;28;20487;-86
2022/02/07 06:38:59;;;;;;;;;;;;;;;;;;;;;
2022/02/07 06:42:15;;;;;;;5.67;1.67;;;5.80;99.90;;;;;;4968745;28;20459;-85
2022/02/07 06:45:03;;;;;;;10.97;1.90;;;5.80;99.90;;;;;;4958000;29;20507;-82
2022/02/07 06:48:31;;;;;;;4.90;1.53;;;5.80;99.90;;;;;;4947381;28;20469;-83
2022/02/07 06:51:23;;;;;;;8.30;1.87;;;5.90;99.90;;;;;;4979934;23;20567;-84
2022/02/07 07:04:56;;;;;;;9.80;2.10;;;5.90;99.90;;;;;;5079224;23;20511;-86
2022/02/07 07:08:02;;;;;;;7.07;2.63;;;5.90;99.90;;;;;;4919290;29;20475;-82
2022/02/07 07:11:05;;;;;;;5.10;2.10;;;5.90;99.90;;;;;;4963493;28;20492;-85
2022/02/07 07:17:23;;;;;;;8.30;1.90;;;6.00;99.90;;;;;;4919673;29;20462;-86
2022/02/07 07:20:28;;;;;;;6.63;2.40;;;5.90;99.90;;;;;;4929121;29;20899;-86
2022/02/07 07:23:57;;;;;;;8.30;2.07;;;6.00;99.90;;;;;;4905540;29;20936;-85
2022/02/07 07:26:41;;;;;;;11.73;3.50;;;6.10;99.90;;;;;;4892669;29;20508;-84
2022/02/07 07:35:37;;;;;;;8.40;2.13;;;6.00;99.90;;;;;;4999751;28;20448;-85
2022/02/07 07:39:23;;;;;;;10.20;2.40;;;6.00;99.90;;;;;;4956995;28;20471;-83
2022/02/07 07:43:10;;;;;;;;;;;;;;;;;;;;;
2022/02/07 08:03:24;;;;;;;10.07;3.00;;;6.30;99.90;;;;;;4793728;29;20468;-85
2022/02/07 08:06:36;;;;;;;4.13;1.77;;;6.40;99.90;;;;;;4769666;29;20851;-86
2022/02/07 08:13:43;;;;;;;8.80;2.00;;;6.50;99.90;;;;;;4821730;29;20520;-84
2022/02/07 08:17:00;;;;;;;6.63;2.50;;;6.40;99.90;;;;;;4780147;30;20577;-86
2022/02/07 08:19:58;;;;;;;10.10;3.00;;;6.50;99.90;;;;;;4772918;29;20482;-85
2022/02/07 08:23:03;;;;;;;;;;;;;;;;;;;;;
2022/02/07 08:26:11;;;;;;;3.90;2.00;;;6.50;99.90;;;;;;4854284;29;20543;-85
2022/02/07 08:32:35;;;;;;;4.13;2.27;;;6.50;99.90;;;;;;4856145;29;20533;-83
2022/02/07 08:38:58;;;;;;;8.43;2.73;;;6.50;99.90;;;;;;4871665;29;20437;-84
2022/02/07 08:42:50;;;;;;;6.33;2.37;;;6.50;99.90;;;;;;4853992;29;20457;-85
2022/02/07 08:45:46;;;;;;;12.33;2.90;;;6.50;99.90;;;;;;4857214;29;20538;-84
2022/02/07 08:48:29;;;;;;;7.53;2.10;;;6.40;99.90;;;;;;4896648;29;20439;-82
2022/02/07 08:54:31;;;;;;;5.63;2.73;;;6.50;99.90;;;;;;4993704;28;20475;-85
2022/02/07 09:11:19;;;;;;;;;;;;;;;;;;;;;
2022/02/07 09:18:02;;;;;;;8.87;2.60;;;6.70;99.90;;;;;;4967177;28;20508;-84
2022/02/07 09:25:01;;;;;;;7.37;3.20;;;6.90;99.90;;;;;;4949278;28;20602;-84
2022/02/07 09:28:21;;;;;;;10.63;2.90;;;7.00;99.90;;;;;;4946357;28;20560;-84
2022/02/07 09:34:51;;;;;;;11.53;2.40;;;7.10;99.90;;;;;;4953901;28;20836;-86
2022/02/07 09:37:44;;;;;;;14.00;2.90;;;7.10;99.90;;;;;;4963856;28;20470;-84
2022/02/07 09:41:16;;;;;;;18.80;2.77;;;7.20;99.90;;;;;;4961498;28;20513;-84
2022/02/07 09:47:27;;;;;;;7.43;3.00;;;7.40;99.90;;;;;;4958926;28;20484;-87
2022/02/07 09:54:22;;;;;;;16.93;2.60;;;7.40;99.90;;;;;;4952892;28;20947;-85
2022/02/07 09:56:59;;;;;;;8.60;3.13;;;7.60;99.90;;;;;;4951540;28;20454;-85
2022/02/07 09:59:56;;;;;;;11.67;2.20;;;7.60;99.90;;;;;;4962519;28;20480;-85
2022/02/07 10:02:46;;;;;;;11.07;3.27;;;7.70;99.90;;;;;;4935211;29;20457;-84
2022/02/07 10:05:25;;;;;;;8.50;2.27;;;8.10;99.90;;;;;;4935439;29;20493;-87
2022/02/07 10:14:06;;;;;;;14.97;2.77;;;11.80;94.70;;;;;;4944079;29;20605;-84
2022/02/07 10:19:29;;;;;;;12.97;3.57;;;11.80;93.40;;;;;;4934704;29;21053;-86
2022/02/07 10:46:17;;;;;;;12.90;5.43;;;9.00;99.00;;;;;;4954703;28;20493;-87
2022/02/07 10:48:59;;;;;;;12.20;3.50;;;8.80;99.90;;;;;;4968371;28;20996;-84
2022/02/07 10:51:36;;;;;;;8.60;3.37;;;8.80;99.90;;;;;;4956888;28;20493;-84
2022/02/07 10:54:16;;;;;;;14.30;3.50;;;9.00;99.90;;;;;;4957632;28;20509;-86
2022/02/07 10:56:47;;;;;;;11.57;3.20;;;9.00;99.80;;;;;;4971596;28;20543;-84
2022/02/07 10:59:25;;;;;;;7.50;2.60;;;8.80;99.90;;;;;;4956409;28;20612;-87
2022/02/07 11:04:58;;;;;;;8.47;3.30;;;8.70;99.90;;;;;;4956717;28;20583;-85
2022/02/07 11:07:31;;;;;;;11.53;2.90;;;8.50;99.90;;;;;;4947466;28;20495;-84
2022/02/07 11:10:27;;;;;;;11.23;3.77;;;8.40;99.90;;;;;;4951828;28;21051;-87
2022/02/07 11:13:35;;;;;;;9.23;4.10;;;8.40;99.90;;;;;;4965286;28;20798;-85
2022/02/07 11:22:14;;;;;;;8.37;3.40;;;8.30;99.90;;;;;;4964451;28;20460;-85
2022/02/07 11:27:50;;;;;;;12.43;2.63;;;8.30;99.90;;;;;;4957389;28;20457;-84
2022/02/07 11:30:40;;;;;;;10.30;3.30;;;8.20;99.90;;;;;;4936668;29;20539;-85
2022/02/07 11:34:06;;;;;;;13.30;3.30;;;8.30;99.90;;;;;;4946669;29;20598;-83
2022/02/07 11:36:44;;;;;;;9.27;3.53;;;8.20;99.90;;;;;;4947524;28;20458;-84
2022/02/07 11:39:20;;;;;;;10.23;3.30;;;8.20;99.90;;;;;;4951425;28;20488;-85
2022/02/07 11:42:13;;;;;;;9.33;3.27;;;8.40;99.90;;;;;;4953699;29;20497;-84
2022/02/07 11:45:09;;;;;;;9.47;3.23;;;8.50;99.90;;;;;;4957949;28;20488;-84
2022/02/07 11:48:08;;;;;;;6.80;3.33;;;8.60;99.90;;;;;;4954910;28;20536;-86
2022/02/07 11:51:11;;;;;;;7.27;2.37;;;8.60;99.90;;;;;;4959831;28;20481;-85
2022/02/07 11:53:58;;;;;;;11.17;3.17;;;8.50;99.90;;;;;;4951348;28;20464;-85
2022/02/07 11:57:06;;;;;;;8.97;3.13;;;8.50;99.90;;;;;;4964196;29;20472;-84
2022/02/07 11:59:43;;;;;;;7.90;3.20;;;8.50;99.90;;;;;;4959791;28;20498;-85
2022/02/07 12:02:20;;;;;;;11.10;3.00;;;8.50;99.90;;;;;;4960412;29;20802;-84
2022/02/07 12:05:02;;;;;;;6.20;2.87;;;8.60;99.90;;;;;;4954678;28;20489;-83
2022/02/07 12:07:41;;;;;;;7.23;3.30;;;8.60;99.90;;;;;;4956006;28;20548;-82
2022/02/07 12:10:37;;;;;;;11.03;5.23;;;8.50;99.90;;;;;;4976978;28;20583;-87
2022/02/07 12:13:41;;;;;;;7.97;2.70;;;8.60;99.90;;;;;;4973447;28;20540;-83
2022/02/07 12:16:13;;;;;;;6.67;2.30;;;8.50;99.90;;;;;;4969578;28;20449;-82
2022/02/07 12:18:40;;;;;;;7.80;3.13;;;8.50;99.90;;;;;;4962930;28;20557;-84
2022/02/07 12:21:26;;;;;;;7.60;2.60;;;8.60;99.90;;;;;;4954904;28;20493;-86
2022/02/07 12:24:02;;;;;;;7.33;2.73;;;8.50;99.90;;;;;;4958840;28;20477;-82
2022/02/07 12:26:45;;;;;;;12.03;3.37;;;8.50;99.90;;;;;;4963135;28;21024;-84
2022/02/07 12:32:18;;;;;;;5.57;2.77;;;8.50;99.90;;;;;;4959232;28;20549;-84
2022/02/07 12:34:51;;;;;;;9.13;2.83;;;8.40;99.90;;;;;;4952813;29;20461;-85
2022/02/07 12:37:42;;;;;;;7.97;2.73;;;8.30;99.90;;;;;;4949512;29;20465;-84
2022/02/07 12:40:18;;;;;;;6.40;2.20;;;8.30;99.90;;;;;;4945230;29;20482;-84
2022/02/07 12:42:57;;;;;;;6.70;2.70;;;8.30;99.90;;;;;;4949819;28;20988;-82
2022/02/07 12:45:34;;;;;;;8.37;3.53;;;8.20;99.90;;;;;;4955728;28;20622;-84
2022/02/07 12:48:23;;;;;;;11.13;3.40;;;8.20;99.90;;;;;;4949814;29;20536;-88
2022/02/07 12:51:11;;;;;;;5.20;2.57;;;8.30;99.90;;;;;;4944221;29;20477;-84
2022/02/07 12:53:54;;;;;;;7.80;3.77;;;8.30;99.90;;;;;;4961608;29;20461;-86
2022/02/07 12:56:32;;;;;;;7.53;2.47;;;8.40;99.90;;;;;;4953715;29;20456;-85
2022/02/07 12:59:03;;;;;;;6.07;2.40;;;8.40;99.90;;;;;;4973078;28;20495;-82
2022/02/07 13:01:42;;;;;;;5.10;2.30;;;8.30;99.90;;;;;;4958390;29;20548;-83
2022/02/07 13:04:35;;;;;;;7.23;3.43;;;8.40;99.90;;;;;;4954945;29;20511;-84
2022/02/07 13:07:08;;;;;;;5.93;2.40;;;8.40;99.90;;;;;;4958382;29;20520;-84
2022/02/07 13:10:05;;;;;;;6.93;2.90;;;8.50;99.90;;;;;;4950344;28;20835;-84
2022/02/07 13:15:28;;;;;;;5.30;2.83;;;8.50;99.90;;;;;;4958353;29;20548;-85
2022/02/07 13:18:05;;;;;;;6.00;3.10;;;8.40;99.90;;;;;;4943962;28;20545;-82
2022/02/07 13:21:09;;;;;;;9.27;2.67;;;8.50;99.90;;;;;;4944722;29;20489;-83
2022/02/07 13:23:47;;;;;;;7.40;2.60;;;8.50;99.90;;;;;;4947029;29;20456;-84
2022/02/07 13:26:17;;;;;;;6.50;3.90;;;8.40;99.90;;;;;;4947675;28;20489;-84
2022/02/07 13:29:17;;;;;;;7.40;3.27;;;8.40;99.90;;;;;;4947546;29;20473;-83
2022/02/07 13:32:02;;;;;;;6.97;2.20;;;8.50;99.90;;;;;;4944784;28;20837;-85
2022/02/07 13:34:50;;;;;;;7.67;2.50;;;8.60;99.90;;;;;;4952292;29;20635;-85
2022/02/07 13:37:30;;;;;;;5.60;2.60;;;8.80;98.80;;;;;;4946732;29;20556;-85
2022/02/07 13:40:17;;;;;;;6.00;2.47;;;8.90;98.30;;;;;;4946010;29;20493;-84
2022/02/07 13:42:56;;;;;;;7.40;2.87;;;9.00;96.10;;;;;;4948360;29;20457;-83
2022/02/07 13:45:35;;;;;;;6.43;2.67;;;9.00;96.00;;;;;;4949030;29;20497;-84
2022/02/07 13:48:07;;;;;;;4.90;2.60;;;9.00;95.40;;;;;;4946308;29;20487;-84
2022/02/07 13:50:48;;;;;;;4.40;2.10;;;9.00;94.70;;;;;;4946619;29;20512;-81
2022/02/07 13:53:31;;;;;;;7.87;3.07;;;9.00;94.70;;;;;;4975328;28;20498;-83
2022/02/07 13:56:16;;;;;;;5.03;2.37;;;8.90;94.80;;;;;;4946810;29;20568;-86
2022/02/07 13:58:54;;;;;;;8.47;2.60;;;8.90;95.00;;;;;;4946340;29;20990;-83
2022/02/07 14:01:37;;;;;;;5.90;2.33;;;8.90;94.90;;;;;;4948304;29;20462;-83
2022/02/07 14:04:25;;;;;;;8.10;2.60;;;9.00;95.00;;;;;;4964040;28;21033;-84
2022/02/07 14:07:07;;;;;;;7.80;2.50;;;9.00;95.10;;;;;;4947668;29;20488;-83
2022/02/07 14:09:55;;;;;;;7.80;2.50;;;9.00;95.00;;;;;;4947716;29;20481;-86
2022/02/07 14:12:45;;;;;;;13.97;2.80;;;9.00;94.80;;;;;;4941872;29;20517;-85
2022/02/07 14:15:28;;;;;;;9.00;2.83;;;9.00;94.90;;;;;;4951895;28;20488;-83
2022/02/07 14:18:20;;;;;;;7.47;2.30;;;8.90;95.20;;;;;;4949710;29;20465;-83
2022/02/07 14:21:18;;;;;;;8.00;2.30;;;9.00;95.50;;;;;;4964002;28;21068;-85
2022/02/07 14:24:00;;;;;;;4.70;2.43;;;9.00;95.70;;;;;;4928663;29;20457;-86
2022/02/07 14:27:22;;;;;;;5.73;2.50;;;9.10;95.80;;;;;;4943617;29;20489;-87
2022/02/07 14:32:32;;;;;;;7.33;2.17;;;9.00;95.80;;;;;;4915060;29;20494;-84
2022/02/07 14:35:02;;;;;;;7.80;3.03;;;9.10;95.70;;;;;;4930359;29;21039;-82
2022/02/07 14:37:35;;;;;;;5.70;2.17;;;9.00;94.80;;;;;;4932900;29;20470;-86
2022/02/07 14:40:13;;;;;;;8.43;2.40;;;9.00;94.50;;;;;;4924316;29;20470;-88
2022/02/07 14:42:43;;;;;;;5.80;1.73;;;9.10;94.30;;;;;;4922395;29;20510;-84
2022/02/07 14:45:26;;;;;;;6.53;1.93;;;9.00;94.10;;;;;;4938821;29;20492;-86
2022/02/07 14:47:55;;;;;;;2.50;1.60;;;9.10;94.00;;;;;;4940374;29;21077;-85
2022/02/07 14:50:30;;;;;;;9.20;2.07;;;9.10;94.10;;;;;;4925852;29;21026;-86
2022/02/07 14:53:16;;;;;;;;;;;;;;;;;;;;;
2022/02/07 14:55:55;;;;;;;4.87;2.20;;;9.20;93.90;;;;;;4927733;29;20454;-85
2022/02/07 14:58:30;;;;;;;6.60;1.70;;;9.10;93.80;;;;;;4925876;29;20451;-87
2022/02/07 15:01:27;;;;;;;7.10;2.20;;;9.20;93.60;;;;;;4933540;29;20548;-86
2022/02/07 15:03:55;;;;;;;4.77;2.27;;;9.20;93.70;;;;;;4938218;29;20549;-81
2022/02/07 15:06:37;;;;;;;9.00;2.53;;;9.20;93.40;;;;;;4942492;29;20492;-83
2022/02/07 15:09:10;;;;;;;5.73;1.90;;;9.10;93.20;;;;;;4937572;29;20462;-87
2022/02/07 15:11:45;;;;;;;4.93;2.20;;;9.00;93.20;;;;;;4938770;29;20454;-87
2022/02/07 15:14:21;;;;;;;5.13;1.87;;;9.00;93.50;;;;;;4938404;29;20476;-83
2022/02/07 15:16:54;;;;;;;5.23;1.77;;;9.00;93.70;;;;;;4938503;29;20427;-86
2022/02/07 15:19:24;;;;;;;6.20;1.77;;;9.00;93.90;;;;;;4953946;29;20514;-84
2022/02/07 15:22:03;;;;;;;5.37;2.00;;;9.10;93.90;;;;;;4934765;29;20467;-85
2022/02/07 15:24:49;;;;;;;9.33;1.77;;;9.00;94.00;;;;;;4933084;29;20431;-82
2022/02/07 15:27:25;;;;;;;7.50;1.53;;;9.00;94.00;;;;;;4929662;29;20501;-85
2022/02/07 15:30:05;;;;;;;8.17;2.20;;;9.00;93.90;;;;;;4931262;29;20470;-80
2022/02/07 15:32:52;;;;;;;4.67;1.97;;;9.10;94.00;;;;;;4943181;29;20469;-86
2022/02/07 15:35:24;;;;;;;5.30;1.90;;;9.00;93.60;;;;;;4943856;29;20499;-83
2022/02/07 15:37:59;;;;;;;4.30;1.50;;;8.90;93.30;;;;;;4945774;29;20466;-84
2022/02/07 15:40:34;;;;;;;4.43;1.70;;;9.00;93.70;;;;;;4930501;29;20479;-86
2022/02/07 15:43:12;;;;;;;3.80;2.23;;;9.00;93.60;;;;;;4943918;29;20458;-86
2022/02/07 15:45:48;;;;;;;4.00;1.73;;;9.00;93.50;;;;;;4931316;29;20486;-86
2022/02/07 15:48:26;;;;;;;4.17;1.50;;;9.00;93.50;;;;;;4922823;29;20467;-88
2022/02/07 15:50:58;;;;;;;37.53;33.43;;;9.00;93.50;;;;;;4924474;29;20486;-85
2022/02/07 15:53:35;;;;;;;5.80;1.90;;;8.90;93.60;;;;;;4942841;29;20495;-84
2022/02/07 15:56:07;;;;;;;2.30;1.40;;;8.90;93.40;;;;;;4944199;29;20489;-82
2022/02/07 15:58:37;;;;;;;3.90;2.10;;;8.90;93.20;;;;;;4940477;29;20467;-83
2022/02/07 16:01:13;;;;;;;4.10;1.73;;;8.80;93.10;;;;;;4929145;29;20491;-87
2022/02/07 16:03:46;;;;;;;7.90;1.73;;;8.80;93.40;;;;;;4926761;29;20491;-85
2022/02/07 16:06:18;;;;;;;7.83;2.10;;;8.80;93.30;;;;;;4928889;29;20490;-86
2022/02/07 16:08:46;;;;;;;5.03;2.37;;;8.80;93.20;;;;;;4942675;29;20447;-84
2022/02/07 16:11:17;;;;;;;5.50;2.03;;;8.80;93.10;;;;;;4944866;29;20498;-86
2022/02/07 16:14:29;;;;;;;6.87;1.73;;;8.80;93.40;;;;;;4944641;29;20463;-86
2022/02/07 16:17:00;;;;;;;5.30;1.33;;;8.80;93.50;;;;;;4933464;29;20476;-85
2022/02/07 16:19:40;;;;;;;8.97;2.03;;;8.80;93.40;;;;;;4933213;29;20474;-88
2022/02/07 16:22:25;;;;;;;8.33;2.00;;;8.70;93.30;;;;;;4950678;28;20521;-88
2022/02/07 16:25:13;;;;;;;4.13;1.63;;;8.70;93.60;;;;;;4948266;28;20462;-84
2022/02/07 16:27:45;;;;;;;8.33;2.50;;;8.60;93.70;;;;;;4948078;29;20469;-87
2022/02/07 16:30:17;;;;;;;4.83;1.90;;;8.60;93.90;;;;;;4933177;29;20498;-88
2022/02/07 16:33:03;;;;;;;6.23;2.77;;;8.50;94.10;;;;;;4926293;29;20454;-83
2022/02/07 16:35:50;;;;;;;7.33;2.00;;;8.50;94.30;;;;;;4934796;29;20475;-86
2022/02/07 16:38:38;;;;;;;3.80;1.50;;;8.50;94.40;;;;;;4916000;29;20494;-84
2022/02/07 16:41:28;;;;;;;7.00;2.73;;;8.50;94.60;;;;;;5018637;23;20928;-84
2022/02/07 16:44:09;;;;;;;6.13;2.30;;;8.40;94.50;;;;;;4979813;28;20934;-85
2022/02/07 16:46:49;;;;;;;6.27;2.57;;;8.40;94.70;;;;;;4979523;28;20483;-82
2022/02/07 16:49:51;;;;;;;13.37;3.10;;;8.40;94.70;;;;;;4984314;28;20468;-83
2022/02/07 16:52:28;;;;;;;5.07;1.93;;;8.30;94.70;;;;;;4993583;28;21040;-85
2022/02/07 16:55:02;;;;;;;7.83;1.90;;;8.40;94.90;;;;;;4982902;28;20451;-85
2022/02/07 16:57:37;;;;;;;13.20;2.37;;;8.30;95.00;;;;;;4980873;28;20499;-82
2022/02/07 17:00:09;;;;;;;8.07;2.43;;;8.30;95.10;;;;;;4980771;28;20496;-84
2022/02/07 17:02:53;;;;;;;5.17;2.30;;;8.30;95.20;;;;;;4980465;28;20494;-85
2022/02/07 17:05:37;;;;;;;9.13;2.23;;;8.40;95.10;;;;;;4975116;28;20458;-84
2022/02/07 17:08:28;;;;;;;4.93;2.43;;;8.30;95.20;;;;;;4974969;28;21537;-82
2022/02/07 17:16:58;;;;;;;5.63;1.90;;;8.20;95.50;;;;;;4960601;28;20452;-85
2022/02/07 17:19:45;;;;;;;8.57;2.83;;;8.20;95.50;;;;;;4958654;28;20524;-83
2022/02/07 17:22:20;;;;;;;10.77;2.80;;;8.20;95.60;;;;;;4957597;28;20492;-81
2022/02/07 17:25:05;;;;;;;4.87;1.80;;;8.20;95.50;;;;;;4980185;28;20469;-87
2022/02/07 17:27:58;;;;;;;8.60;2.80;;;8.30;95.60;;;;;;4970913;28;20485;-85
2022/02/07 17:30:39;;;;;;;6.30;3.40;;;8.30;95.60;;;;;;4979483;28;20760;-81
2022/02/07 17:33:31;;;;;;;8.03;2.50;;;8.50;95.50;;;;;;4946463;29;20552;-83
2022/02/07 17:36:37;;;;;;;2.83;1.90;;;8.40;95.20;;;;;;4943617;29;20454;-84
2022/02/07 17:39:38;;;;;;;9.03;1.90;;;8.50;95.20;;;;;;4971580;28;20489;-83
2022/02/07 17:42:50;;;;;;;8.80;2.43;;;8.70;94.90;;;;;;4955813;28;20465;-83
2022/02/07 17:46:17;;;;;;;7.40;1.80;;;8.80;94.30;;;;;;4960781;28;20499;-83
2022/02/07 17:48:59;;;;;;;5.77;2.37;;;8.50;94.50;;;;;;4968164;28;20456;-84
2022/02/07 17:51:42;;;;;;;6.50;2.90;;;8.30;94.90;;;;;;4973180;28;20459;-83
2022/02/07 17:54:32;;;;;;;4.33;1.60;;;8.40;95.10;;;;;;4968231;28;20932;-84
2022/02/07 17:57:15;;;;;;;4.63;2.10;;;8.40;95.00;;;;;;4960327;29;20514;-85
2022/02/07 18:00:08;;;;;;;4.10;1.83;;;8.40;95.10;;;;;;4969564;28;20496;-86
2022/02/07 18:03:17;;;;;;;8.80;2.37;;;8.30;95.20;;;;;;4968548;28;20501;-83
2022/02/07 18:06:07;;;;;;;6.10;2.43;;;8.30;95.30;;;;;;4960607;29;20453;-87
2022/02/07 18:09:09;;;;;;;2.30;2.03;;;8.30;95.60;;;;;;4974132;28;20461;-84
2022/02/07 18:12:13;;;;;;;6.07;2.97;;;8.70;95.10;;;;;;4959053;29;20461;-85
2022/02/07 18:14:52;;;;;;;6.03;2.37;;;8.60;94.80;;;;;;4954233;29;20453;-85
2022/02/07 18:17:45;;;;;;;4.73;2.27;;;8.40;95.00;;;;;;4963480;28;20467;-84
2022/02/07 18:20:39;;;;;;;9.13;2.30;;;8.40;95.20;;;;;;4955212;28;20481;-84
2022/02/07 18:23:30;;;;;;;4.53;2.27;;;8.30;95.30;;;;;;4961857;29;20481;-84
2022/02/07 18:26:06;;;;;;;7.43;2.43;;;8.30;95.30;;;;;;4963739;28;20595;-85
2022/02/07 18:29:04;;;;;;;7.43;2.80;;;8.30;95.50;;;;;;4962469;28;20532;-83
2022/02/07 18:31:50;;;;;;;13.57;2.40;;;8.30;95.50;;;;;;4981829;28;20479;-83
2022/02/07 18:34:39;;;;;;;7.93;3.20;;;8.30;95.60;;;;;;4959370;29;20939;-84
2022/02/07 18:37:29;;;;;;;3.50;1.90;;;8.50;95.40;;;;;;4976892;28;20465;-84
2022/02/07 18:40:16;;;;;;;7.03;2.20;;;8.40;95.00;;;;;;4956293;28;20485;-83
2022/02/07 18:43:08;;;;;;;4.20;2.80;;;8.50;95.10;;;;;;4951169;28;20560;-82
2022/02/07 18:45:52;;;;;;;9.13;2.13;;;8.40;95.20;;;;;;4956922;28;20805;-83
2022/02/07 18:48:40;;;;;;;4.83;2.30;;;8.40;95.30;;;;;;4948928;28;20921;-84
2022/02/07 18:51:23;;;;;;;5.60;2.13;;;8.30;95.40;;;;;;4974565;28;20492;-83
2022/02/07 18:54:21;;;;;;;3.50;2.40;;;8.30;95.30;;;;;;4962724;28;20453;-84
2022/02/07 18:56:55;;;;;;;4.90;1.70;;;8.40;95.10;;;;;;4943983;29;20462;-85
2022/02/07 18:59:36;;;;;;;3.23;2.10;;;8.30;95.10;;;;;;4959961;28;20482;-84
2022/02/07 19:02:28;;;;;;;4.70;2.20;;;8.30;95.10;;;;;;4973612;28;20464;-85
2022/02/07 19:05:30;;;;;;;4.27;2.30;;;8.30;95.10;;;;;;4977477;28;20493;-83
2022/02/07 19:08:34;;;;;;;8.63;2.50;;;8.30;95.10;;;;;;4977879;28;20496;-82